F/V Oceanie — FVBW — position and weather

sailwx.info

Track history (hours):
 
Tides and Currents Weather Stations Pressure Air Temp Water Temp Dewpoint Dewpoint Depression Visibility Wind Speed Wind Dir Waves Ship Positions

F/V Oceanie

Last reported at 2016-Dec-09 20:33 UTC. Time now 2016-Dec-09 21:16 UTC.
Position N 47°15' W 003°44'.

Length 16 m.

Type: Fishing. MMSI: 228370000.

Date/timePositionNaut miles runAvg speedWind from/ knotsBaromVisibWave heightAir tempDewpointWater temp
2016-Dec-09 20:33N 47°15' W 003°44'4 4.0
2016-Dec-09 19:33N 47°12' W 003°47'2 1.8
2016-Dec-09 18:33N 47°12' W 003°44'0 0.2
2016-Dec-09 17:33N 47°12' W 003°45'2 1.6
2016-Dec-09 16:33N 47°12' W 003°47'3 3.0
2016-Dec-09 15:33N 47°14' W 003°50'3 2.6
2016-Dec-09 14:33N 47°13' W 003°46'1 0.6
2016-Dec-09 13:33N 47°14' W 003°46'3 3.1
2016-Dec-09 12:33N 47°11' W 003°44'3 2.8
2016-Dec-09 11:33N 47°08' W 003°44'1 1.5
2016-Dec-09 10:33N 47°09' W 003°43'3 2.8
2016-Dec-09 09:33N 47°12' W 003°43'2 2.3
2016-Dec-09 08:33N 47°10' W 003°41'2 2.2
2016-Dec-09 07:33N 47°11' W 003°44'2 1.9
2016-Dec-09 06:33N 47°09' W 003°43'3 3.4
2016-Dec-09 05:33N 47°12' W 003°40'4 3.8
2016-Dec-09 04:33N 47°16' W 003°40'4 3.8
2016-Dec-09 03:33N 47°19' W 003°36'9 8.9
2016-Dec-09 02:33N 47°27' W 003°29'9 9.0
2016-Dec-09 01:33N 47°35' W 003°23'9 9.0
2016-Dec-09 00:33N 47°44' W 003°22'1 0.6
2016-Dec-08 23:33N 47°43' W 003°22'9 9.3
2016-Dec-08 22:33N 47°34' W 003°22'9 9.3
2016-Dec-08 21:33N 47°26' W 003°29'8 7.7
2016-Dec-08 20:33N 47°20' W 003°36'2 2.3
2016-Dec-08 19:33N 47°18' W 003°39'4 3.8
2016-Dec-08 18:33N 47°14' W 003°40'4 4.1
2016-Dec-08 17:30N 47°10' W 003°41'2 2.3
2016-Dec-08 16:33N 47°11' W 003°44'3 2.9
2016-Dec-08 15:34N 47°12' W 003°40'4 3.5
2016-Dec-08 14:33N 47°09' W 003°44'3 3.1
2016-Dec-08 13:33N 47°12' W 003°43'2 2.4
2016-Dec-08 12:33N 47°10' W 003°42'2 2.1
2016-Dec-08 11:33N 47°11' W 003°44'2 2.3
2016-Dec-08 10:33N 47°11' W 003°40'3 2.8
2016-Dec-08 09:33N 47°09' W 003°44'3 3.0
2016-Dec-08 08:33N 47°12' W 003°42'2 2.1
2016-Dec-08 07:33N 47°10' W 003°41'2 2.1
2016-Dec-08 06:33N 47°12' W 003°43'2 2.5
2016-Dec-08 05:33N 47°10' W 003°42'4 3.7
2016-Dec-08 04:33N 47°12' W 003°39'4 3.5
2016-Dec-08 03:33N 47°16' W 003°37'2 2.0
2016-Dec-08 02:33N 47°15' W 003°40'4 4.2
2016-Dec-08 01:33N 47°11' W 003°40'2 2.0
2016-Dec-08 00:33N 47°11' W 003°38'4 3.7
2016-Dec-07 23:33N 47°14' W 003°36'3 2.9
2016-Dec-07 22:33N 47°17' W 003°37'3 3.5
2016-Dec-07 21:33N 47°15' W 003°33'1 1.1
2016-Dec-07 20:33N 47°16' W 003°35'4 4.1
2016-Dec-07 19:33N 47°12' W 003°33'4 3.6
2016-Dec-07 18:33N 47°08' W 003°33'3 2.6
2016-Dec-07 17:33N 47°10' W 003°31'2 2.1
2016-Dec-07 16:33N 47°12' W 003°30'4 4.1
2016-Dec-07 15:34N 47°10' W 003°25'4 4.1
2016-Dec-07 14:33N 47°06' W 003°24'2 2.4
2016-Dec-07 13:33N 47°04' W 003°26'3 3.0
2016-Dec-07 12:33N 47°05' W 003°30'3 2.6
2016-Dec-07 11:33N 47°08' W 003°30'3 2.7
2016-Dec-07 10:33N 47°05' W 003°27'3 2.7
2016-Dec-07 09:33N 47°04' W 003°31'4 3.7
2016-Dec-07 08:33N 47°08' W 003°32'3 3.0
2016-Dec-07 07:33N 47°11' W 003°32'2 1.8
2016-Dec-07 06:33N 47°12' W 003°30'5 4.8
2016-Dec-07 05:33N 47°17' W 003°31'9 8.9
2016-Dec-07 04:33N 47°26' W 003°27'9 9.0
2016-Dec-07 03:33N 47°34' W 003°23'9 8.8
2016-Dec-07 02:33N 47°43' W 003°22'1 0.0
2016-Dec-06 02:34N 47°44' W 003°22'3 3.5
2016-Dec-06 01:34N 47°40' W 003°22'9 9.4
2016-Dec-06 00:34N 47°31' W 003°25'9 9.3
2016-Dec-05 23:34N 47°22' W 003°29'9 9.4
2016-Dec-05 22:33N 47°13' W 003°33'5 4.0
2016-Dec-05 21:24N 47°08' W 003°33'10 1.4
2016-Dec-05 14:09N 47°02' W 003°45'7 3.5
2016-Dec-05 12:15N 47°09' W 003°43'3 4.1
2016-Dec-05 11:33N 47°10' W 003°39'4 3.1
2016-Dec-05 10:09N 47°07' W 003°34'2 3.5
2016-Dec-05 09:31N 47°05' W 003°33'3 2.8
2016-Dec-05 08:33N 47°08' W 003°32'3 3.5
2016-Dec-05 07:34N 47°10' W 003°35'2 1.4
2016-Dec-05 06:24N 47°10' W 003°33'5 2.5
2016-Dec-05 04:32N 47°05' W 003°33'3 3.4
2016-Dec-05 03:33N 47°08' W 003°35'3 2.6
2016-Dec-05 02:33N 47°11' W 003°36'2 2.5
2016-Dec-05 01:33N 47°13' W 003°34'8 3.8
2016-Dec-04 23:28N 47°06' W 003°31'2 2.1
2016-Dec-04 22:34N 47°07' W 003°33'3 2.9
2016-Dec-04 21:33N 47°09' W 003°35'3 3.3
2016-Dec-04 20:33N 47°13' W 003°36'2 1.9
2016-Dec-04 19:28N 47°11' W 003°35'3 2.8
2016-Dec-04 18:20N 47°08' W 003°37'2 2.9
2016-Dec-04 17:33N 47°10' W 003°37'3 3.2
2016-Dec-04 16:31N 47°13' W 003°36'3 3.1
2016-Dec-04 15:31N 47°10' W 003°35'3 2.6
2016-Dec-04 14:23N 47°09' W 003°39'2 2.0
2016-Dec-04 13:34N 47°07' W 003°40'6 1.9
2016-Dec-04 10:24N 47°04' W 003°48'3 3.4
2016-Dec-04 09:32N 47°06' W 003°46'4 3.7
2016-Dec-04 08:26N 47°10' W 003°44'3 3.7
2016-Dec-04 07:34N 47°14' W 003°43'4 3.8
2016-Dec-04 06:33N 47°17' W 003°40'6 5.9
2016-Dec-04 05:33N 47°22' W 003°36'8 8.4
2016-Dec-04 04:34N 47°29' W 003°29'9 8.6
2016-Dec-04 03:33N 47°36' W 003°23'7 7.3
2016-Dec-04 02:34N 47°44' W 003°22'0 0.0
2016-Dec-03 10:11N 47°44' W 003°22'0 0.0
2016-Dec-02 12:33N 47°44' W 003°22'0 0.1
2016-Dec-02 11:33N 47°44' W 003°22'0 0.0
2016-Dec-01 11:33N 47°44' W 003°22'0 0.0
2016-Dec-01 10:33N 47°44' W 003°22'0 0.0
2016-Dec-01 09:33N 47°44' W 003°22'0 0.0
2016-Dec-01 08:33N 47°44' W 003°22'0 0.0
2016-Nov-30 19:13N 47°44' W 003°22'1 2.2
2016-Nov-30 18:33N 47°42' W 003°22'1 1.4
2016-Nov-30 17:33N 47°44' W 003°22'  
Track history (hours):
 
Tides and Currents Weather Stations Pressure Air Temp Water Temp Dewpoint Dewpoint Depression Visibility Wind Speed Wind Dir Waves Ship Positions

F/V Oceanie

Last reported at 2016-Dec-09 20:33 UTC. Time now 2016-Dec-09 21:16 UTC.
Position N 47°15' W 003°44'.

Length 16 m.

Type: Fishing. MMSI: 228370000.

Date/timePositionNaut miles runAvg speedWind from/ knotsBaromVisibWave heightAir tempDewpointWater temp
2016-Dec-09 20:33N 47°15' W 003°44'4 4.0
2016-Dec-09 19:33N 47°12' W 003°47'2 1.8
2016-Dec-09 18:33N 47°12' W 003°44'0 0.2
2016-Dec-09 17:33N 47°12' W 003°45'2 1.6
2016-Dec-09 16:33N 47°12' W 003°47'3 3.0
2016-Dec-09 15:33N 47°14' W 003°50'3 2.6
2016-Dec-09 14:33N 47°13' W 003°46'1 0.6
2016-Dec-09 13:33N 47°14' W 003°46'3 3.1
2016-Dec-09 12:33N 47°11' W 003°44'3 2.8
2016-Dec-09 11:33N 47°08' W 003°44'1 1.5
2016-Dec-09 10:33N 47°09' W 003°43'3 2.8
2016-Dec-09 09:33N 47°12' W 003°43'2 2.3
2016-Dec-09 08:33N 47°10' W 003°41'2 2.2
2016-Dec-09 07:33N 47°11' W 003°44'2 1.9
2016-Dec-09 06:33N 47°09' W 003°43'3 3.4
2016-Dec-09 05:33N 47°12' W 003°40'4 3.8
2016-Dec-09 04:33N 47°16' W 003°40'4 3.8
2016-Dec-09 03:33N 47°19' W 003°36'9 8.9
2016-Dec-09 02:33N 47°27' W 003°29'9 9.0
2016-Dec-09 01:33N 47°35' W 003°23'9 9.0
2016-Dec-09 00:33N 47°44' W 003°22'1 0.6
2016-Dec-08 23:33N 47°43' W 003°22'9 9.3
2016-Dec-08 22:33N 47°34' W 003°22'9 9.3
2016-Dec-08 21:33N 47°26' W 003°29'8 7.7
2016-Dec-08 20:33N 47°20' W 003°36'2 2.3
2016-Dec-08 19:33N 47°18' W 003°39'4 3.8
2016-Dec-08 18:33N 47°14' W 003°40'4 4.1
2016-Dec-08 17:30N 47°10' W 003°41'2 2.3
2016-Dec-08 16:33N 47°11' W 003°44'3 2.9
2016-Dec-08 15:34N 47°12' W 003°40'4 3.5
2016-Dec-08 14:33N 47°09' W 003°44'3 3.1
2016-Dec-08 13:33N 47°12' W 003°43'2 2.4
2016-Dec-08 12:33N 47°10' W 003°42'2 2.1
2016-Dec-08 11:33N 47°11' W 003°44'2 2.3
2016-Dec-08 10:33N 47°11' W 003°40'3 2.8
2016-Dec-08 09:33N 47°09' W 003°44'3 3.0
2016-Dec-08 08:33N 47°12' W 003°42'2 2.1
2016-Dec-08 07:33N 47°10' W 003°41'2 2.1
2016-Dec-08 06:33N 47°12' W 003°43'2 2.5
2016-Dec-08 05:33N 47°10' W 003°42'4 3.7
2016-Dec-08 04:33N 47°12' W 003°39'4 3.5
2016-Dec-08 03:33N 47°16' W 003°37'2 2.0
2016-Dec-08 02:33N 47°15' W 003°40'4 4.2
2016-Dec-08 01:33N 47°11' W 003°40'2 2.0
2016-Dec-08 00:33N 47°11' W 003°38'4 3.7
2016-Dec-07 23:33N 47°14' W 003°36'3 2.9
2016-Dec-07 22:33N 47°17' W 003°37'3 3.5
2016-Dec-07 21:33N 47°15' W 003°33'1 1.1
2016-Dec-07 20:33N 47°16' W 003°35'4 4.1
2016-Dec-07 19:33N 47°12' W 003°33'4 3.6
2016-Dec-07 18:33N 47°08' W 003°33'3 2.6
2016-Dec-07 17:33N 47°10' W 003°31'2 2.1
2016-Dec-07 16:33N 47°12' W 003°30'4 4.1
2016-Dec-07 15:34N 47°10' W 003°25'4 4.1
2016-Dec-07 14:33N 47°06' W 003°24'2 2.4
2016-Dec-07 13:33N 47°04' W 003°26'3 3.0
2016-Dec-07 12:33N 47°05' W 003°30'3 2.6
2016-Dec-07 11:33N 47°08' W 003°30'3 2.7
2016-Dec-07 10:33N 47°05' W 003°27'3 2.7
2016-Dec-07 09:33N 47°04' W 003°31'4 3.7
2016-Dec-07 08:33N 47°08' W 003°32'3 3.0
2016-Dec-07 07:33N 47°11' W 003°32'2 1.8
2016-Dec-07 06:33N 47°12' W 003°30'5 4.8
2016-Dec-07 05:33N 47°17' W 003°31'9 8.9
2016-Dec-07 04:33N 47°26' W 003°27'9 9.0
2016-Dec-07 03:33N 47°34' W 003°23'9 8.8
2016-Dec-07 02:33N 47°43' W 003°22'1 0.0
2016-Dec-06 02:34N 47°44' W 003°22'3 3.5
2016-Dec-06 01:34N 47°40' W 003°22'9 9.4
2016-Dec-06 00:34N 47°31' W 003°25'9 9.3
2016-Dec-05 23:34N 47°22' W 003°29'9 9.4
2016-Dec-05 22:33N 47°13' W 003°33'5 4.0
2016-Dec-05 21:24N 47°08' W 003°33'10 1.4
2016-Dec-05 14:09N 47°02' W 003°45'7 3.5
2016-Dec-05 12:15N 47°09' W 003°43'3 4.1
2016-Dec-05 11:33N 47°10' W 003°39'4 3.1
2016-Dec-05 10:09N 47°07' W 003°34'2 3.5
2016-Dec-05 09:31N 47°05' W 003°33'3 2.8
2016-Dec-05 08:33N 47°08' W 003°32'3 3.5
2016-Dec-05 07:34N 47°10' W 003°35'2 1.4
2016-Dec-05 06:24N 47°10' W 003°33'5 2.5
2016-Dec-05 04:32N 47°05' W 003°33'3 3.4
2016-Dec-05 03:33N 47°08' W 003°35'3 2.6
2016-Dec-05 02:33N 47°11' W 003°36'2 2.5
2016-Dec-05 01:33N 47°13' W 003°34'8 3.8
2016-Dec-04 23:28N 47°06' W 003°31'2 2.1
2016-Dec-04 22:34N 47°07' W 003°33'3 2.9
2016-Dec-04 21:33N 47°09' W 003°35'3 3.3
2016-Dec-04 20:33N 47°13' W 003°36'2 1.9
2016-Dec-04 19:28N 47°11' W 003°35'3 2.8
2016-Dec-04 18:20N 47°08' W 003°37'2 2.9
2016-Dec-04 17:33N 47°10' W 003°37'3 3.2
2016-Dec-04 16:31N 47°13' W 003°36'3 3.1
2016-Dec-04 15:31N 47°10' W 003°35'3 2.6
2016-Dec-04 14:23N 47°09' W 003°39'2 2.0
2016-Dec-04 13:34N 47°07' W 003°40'6 1.9
2016-Dec-04 10:24N 47°04' W 003°48'3 3.4
2016-Dec-04 09:32N 47°06' W 003°46'4 3.7
2016-Dec-04 08:26N 47°10' W 003°44'3 3.7
2016-Dec-04 07:34N 47°14' W 003°43'4 3.8
2016-Dec-04 06:33N 47°17' W 003°40'6 5.9
2016-Dec-04 05:33N 47°22' W 003°36'8 8.4
2016-Dec-04 04:34N 47°29' W 003°29'9 8.6
2016-Dec-04 03:33N 47°36' W 003°23'7 7.3
2016-Dec-04 02:34N 47°44' W 003°22'0 0.0
2016-Dec-03 10:11N 47°44' W 003°22'0 0.0
2016-Dec-02 12:33N 47°44' W 003°22'0 0.1
2016-Dec-02 11:33N 47°44' W 003°22'0 0.0
2016-Dec-01 11:33N 47°44' W 003°22'0 0.0
2016-Dec-01 10:33N 47°44' W 003°22'0 0.0
2016-Dec-01 09:33N 47°44' W 003°22'0 0.0
2016-Dec-01 08:33N 47°44' W 003°22'0 0.0
2016-Nov-30 19:13N 47°44' W 003°22'1 2.2
2016-Nov-30 18:33N 47°42' W 003°22'1 1.4
2016-Nov-30 17:33N 47°44' W 003°22'  

Dump ship's entire track history